New River Marine Corps Air S, North Carolina
Current Conditions -  °F | °C
As of 3:56 AM on Wednesday 28 Jan 2015 (Local Time) from KNCA Reporting Station
Clear Clear  
Wind Chill: 20°   Ceiling: Unl
Heat Index: 30°   Visibility: 10mi
Dew Point: 23°   Wind: 13mph
Humidity: 75%   Direction: 340°NNW
Pressure: 30.04"   Gusts: NA
Location:  34.6773°N, 77.5232°W
Report Text: KNCA 280856Z AUTO 34011KT 10SM CLR M01/M05 A3004 RMK AO2 SLP174 T10111050 53022
Loading
Personal Weather Stations






























Interactive Weather Map New forecast layout! Learn more

10-Day Weather Forecast

Advertisements
Track Severe Weather on mobile